createdAt,value
2022-12-18T00:01:38.622Z,20.83
2022-12-18T00:04:07.759Z,14.52
2022-12-18T00:06:35.890Z,23.10
2022-12-18T00:09:04.723Z,31.25
2022-12-18T00:11:32.532Z,26.55
2022-12-18T00:14:00.913Z,22.95
2022-12-18T00:16:29.833Z,19.35
2022-12-18T00:18:59.498Z,14.10
2022-12-18T00:21:27.262Z,21.17
2022-12-18T00:23:55.607Z,22.45
2022-12-18T00:26:26.124Z,20.65
2022-12-18T00:29:18.259Z,18.30
2022-12-18T00:31:45.314Z,21.27
2022-12-18T00:34:13.700Z,19.88
2022-12-18T00:36:41.726Z,12.90
2022-12-18T00:39:09.341Z,29.83
2022-12-18T00:41:54.750Z,20.38
2022-12-18T00:44:21.621Z,14.88
2022-12-18T00:46:49.153Z,15.07
2022-12-18T00:49:18.878Z,17.25
2022-12-18T00:51:46.723Z,15.93
2022-12-18T00:54:14.294Z,24.65
2022-12-18T00:56:49.329Z,22.35
2022-12-18T00:59:19.482Z,20.48
2022-12-18T01:01:47.469Z,21.30
2022-12-18T01:04:14.874Z,14.52
2022-12-18T01:06:41.843Z,12.95
2022-12-18T01:09:09.855Z,32.17
2022-12-18T01:11:37.354Z,17.30
2022-12-18T01:14:05.236Z,16.65
2022-12-18T01:16:32.286Z,18.42
2022-12-18T01:19:00.373Z,12.95
2022-12-18T01:21:28.212Z,12.07
2022-12-18T01:23:56.782Z,19.45
2022-12-18T01:26:25.085Z,12.75
2022-12-18T01:29:11.956Z,14.05
2022-12-18T01:31:38.870Z,23.92
2022-12-18T01:34:06.526Z,12.50
2022-12-18T01:36:37.768Z,13.65
2022-12-18T01:39:25.730Z,16.05
2022-12-18T01:42:04.593Z,21.55
2022-12-18T01:44:56.592Z,12.77
2022-12-18T01:47:49.706Z,23.17
2022-12-18T01:50:30.661Z,18.33
2022-12-18T01:53:19.862Z,16.02
2022-12-18T01:55:51.087Z,16.05
2022-12-18T01:58:23.854Z,11.73
2022-12-18T02:00:50.814Z,13.52
2022-12-18T02:03:20.306Z,12.15
2022-12-18T02:05:55.502Z,19.33
2022-12-18T02:08:59.206Z,19.63
2022-12-18T02:11:36.921Z,17.60
2022-12-18T02:14:18.911Z,21.80
2022-12-18T02:17:07.418Z,17.38
2022-12-18T02:20:11.454Z,16.67
2022-12-18T02:23:10.683Z,14.43
2022-12-18T02:26:14.529Z,18.80
2022-12-18T02:28:46.305Z,23.90
2022-12-18T02:31:20.609Z,11.73
2022-12-18T02:33:49.156Z,27.95
2022-12-18T02:36:18.365Z,10.40
2022-12-18T02:38:47.934Z,20.77
2022-12-18T02:41:17.712Z,15.95
2022-12-18T02:43:49.690Z,12.35
2022-12-18T02:46:36.456Z,30.38
2022-12-18T02:49:20.522Z,13.40
2022-12-18T02:51:53.943Z,14.93
2022-12-18T02:54:30.440Z,10.35
2022-12-18T02:57:01.972Z,13.35
2022-12-18T02:59:43.233Z,19.83
2022-12-18T03:02:16.336Z,16.20
2022-12-18T03:04:59.008Z,9.80
2022-12-18T03:07:44.674Z,13.60
2022-12-18T03:10:17.626Z,16.02
2022-12-18T03:12:53.327Z,12.85
2022-12-18T03:15:26.678Z,12.18
2022-12-18T03:18:05.381Z,12.60
2022-12-18T03:20:35.413Z,11.32
2022-12-18T03:23:09.246Z,15.85
2022-12-18T03:25:40.100Z,13.90
2022-12-18T03:28:12.967Z,12.18
2022-12-18T03:30:42.539Z,19.80
2022-12-18T03:33:20.481Z,11.73
2022-12-18T03:35:49.251Z,11.63
2022-12-18T03:38:18.390Z,9.82
2022-12-18T03:41:17.009Z,16.88
2022-12-18T03:44:27.796Z,11.70
2022-12-18T03:47:04.489Z,22.73
2022-12-18T03:49:53.526Z,14.38
2022-12-18T03:52:50.819Z,11.25
2022-12-18T03:55:20.781Z,13.18
2022-12-18T03:57:54.246Z,13.70
2022-12-18T04:00:21.963Z,15.02
2022-12-18T04:03:02.206Z,15.32
2022-12-18T04:05:41.395Z,20.42
2022-12-18T04:08:10.322Z,13.35
2022-12-18T04:10:41.943Z,16.13
2022-12-18T04:13:09.694Z,12.68
2022-12-18T04:15:38.435Z,11.90
2022-12-18T04:18:13.362Z,19.60
2022-12-18T04:20:43.170Z,10.38
2022-12-18T04:23:11.838Z,11.50
2022-12-18T04:25:40.132Z,16.27
2022-12-18T04:28:33.649Z,11.15
2022-12-18T04:31:00.685Z,24.25
2022-12-18T04:33:28.535Z,13.07
2022-12-18T04:35:55.394Z,16.92
2022-12-18T04:38:59.910Z,14.20
2022-12-18T04:41:26.765Z,20.27
2022-12-18T04:43:54.434Z,15.90
2022-12-18T04:46:21.334Z,18.90
2022-12-18T04:48:48.326Z,21.40
2022-12-18T04:51:15.364Z,15.32
2022-12-18T04:53:42.539Z,19.30
2022-12-18T04:56:12.575Z,16.40
2022-12-18T04:58:41.439Z,23.25
2022-12-18T05:01:09.149Z,20.60
2022-12-18T05:03:37.740Z,23.42
2022-12-18T05:06:05.949Z,17.23
2022-12-18T05:08:35.090Z,22.35
2022-12-18T05:11:07.686Z,16.85
2022-12-18T05:13:36.125Z,13.38
2022-12-18T05:16:04.188Z,16.77
2022-12-18T05:18:33.383Z,20.50
2022-12-18T05:21:00.298Z,24.98
2022-12-18T05:23:27.708Z,17.13
2022-12-18T05:26:01.775Z,14.82
2022-12-18T05:28:31.554Z,29.45
2022-12-18T05:31:00.904Z,27.95
2022-12-18T05:33:31.326Z,14.90
2022-12-18T05:36:03.143Z,17.40
2022-12-18T05:38:51.836Z,19.02
2022-12-18T05:41:18.748Z,17.00
2022-12-18T05:43:45.545Z,18.48
2022-12-18T05:46:20.881Z,20.85
2022-12-18T05:48:51.177Z,13.95
2022-12-18T05:51:21.028Z,19.75
2022-12-18T05:53:49.150Z,15.65
2022-12-18T05:56:19.127Z,22.38
2022-12-18T05:58:48.096Z,22.90
2022-12-18T06:01:18.306Z,16.88
2022-12-18T06:03:46.377Z,18.25
2022-12-18T06:06:21.524Z,17.85
2022-12-18T06:09:09.275Z,24.60
2022-12-18T06:11:39.526Z,21.70
2022-12-18T06:14:07.380Z,22.92
2022-12-18T06:16:34.274Z,18.95
2022-12-18T06:19:03.676Z,23.55
2022-12-18T06:21:31.163Z,16.92
2022-12-18T06:23:59.193Z,26.45
2022-12-18T06:26:28.339Z,28.70
2022-12-18T06:28:56.973Z,15.23
2022-12-18T06:31:24.336Z,17.23
2022-12-18T06:33:51.371Z,27.73
2022-12-18T06:36:18.292Z,12.68
2022-12-18T06:39:05.122Z,18.17
2022-12-18T06:41:32.870Z,16.38
2022-12-18T06:44:00.256Z,18.48
2022-12-18T06:46:27.500Z,29.05
2022-12-18T06:48:54.418Z,24.90
2022-12-18T06:51:23.362Z,24.63
2022-12-18T06:53:50.654Z,25.50
2022-12-18T06:56:17.762Z,19.48
2022-12-18T06:58:45.799Z,28.08
2022-12-18T07:01:13.660Z,30.17
2022-12-18T07:03:42.842Z,14.77
2022-12-18T07:06:21.435Z,26.25
2022-12-18T07:08:50.032Z,24.73
2022-12-18T07:11:17.853Z,26.25
2022-12-18T07:13:45.427Z,23.52
2022-12-18T07:16:22.582Z,15.75
2022-12-18T07:19:11.445Z,25.67
2022-12-18T07:21:38.354Z,19.60
2022-12-18T07:24:06.003Z,18.42
2022-12-18T07:26:32.948Z,21.73
2022-12-18T07:29:01.053Z,20.65
2022-12-18T07:31:28.247Z,20.63
2022-12-18T07:33:55.502Z,18.75
2022-12-18T07:36:22.372Z,18.35
2022-12-18T07:38:53.927Z,19.48
2022-12-18T07:41:21.086Z,15.35
2022-12-18T07:43:48.500Z,22.30
2022-12-18T07:46:16.717Z,14.30
2022-12-18T07:48:46.111Z,29.08
2022-12-18T07:51:17.636Z,21.33
2022-12-18T07:53:45.628Z,20.75
2022-12-18T07:56:30.400Z,14.40
2022-12-18T07:58:59.609Z,27.63
2022-12-18T08:01:27.357Z,12.77
2022-12-18T08:03:54.532Z,17.10
2022-12-18T08:06:24.320Z,29.05
2022-12-18T08:08:57.829Z,17.70
2022-12-18T08:11:26.858Z,20.30
2022-12-18T08:13:54.554Z,22.83
2022-12-18T08:16:22.752Z,19.33
2022-12-18T08:18:52.682Z,16.70
2022-12-18T08:21:23.811Z,17.52
2022-12-18T08:23:52.082Z,30.70
2022-12-18T08:26:20.984Z,26.75
2022-12-18T08:28:50.217Z,21.65
2022-12-18T08:31:18.495Z,15.07
2022-12-18T08:33:45.445Z,26.02
2022-12-18T08:36:12.438Z,26.02
2022-12-18T08:38:41.657Z,23.48
2022-12-18T08:41:11.828Z,24.98
2022-12-18T08:43:57.207Z,14.63
2022-12-18T08:46:26.271Z,17.05
2022-12-18T08:48:56.872Z,21.48
2022-12-18T08:51:24.021Z,18.95
2022-12-18T08:53:50.879Z,28.08
2022-12-18T08:56:17.893Z,31.70
2022-12-18T08:59:05.873Z,25.10
2022-12-18T09:01:32.864Z,17.08
2022-12-18T09:04:00.516Z,12.18
2022-12-18T09:06:27.665Z,24.80
2022-12-18T09:08:59.698Z,24.95
2022-12-18T09:11:28.616Z,20.17
2022-12-18T09:13:56.507Z,26.40
2022-12-18T09:16:30.115Z,19.17
2022-12-18T09:19:04.136Z,16.88
2022-12-18T09:21:37.136Z,20.67
2022-12-18T09:24:09.054Z,20.98
2022-12-18T09:26:36.760Z,17.48
2022-12-18T09:29:04.626Z,24.40
2022-12-18T09:31:31.423Z,22.65
2022-12-18T09:34:04.067Z,27.33
2022-12-18T09:36:32.604Z,19.27
2022-12-18T09:39:06.340Z,16.33
2022-12-18T09:41:48.207Z,34.30
2022-12-18T09:44:25.148Z,15.50
2022-12-18T09:47:00.518Z,22.13
2022-12-18T09:49:31.850Z,15.27
2022-12-18T09:52:09.440Z,14.82
2022-12-18T09:54:41.904Z,13.23
2022-12-18T09:57:15.842Z,26.92
2022-12-18T09:59:47.136Z,14.23
2022-12-18T10:02:25.666Z,13.48
2022-12-18T10:05:15.272Z,27.65
2022-12-18T10:08:08.341Z,49.30
2022-12-18T10:10:42.568Z,33.25
2022-12-18T10:13:26.974Z,20.08
2022-12-18T10:16:17.095Z,19.73
2022-12-18T10:18:51.758Z,21.27
2022-12-18T10:21:46.039Z,12.20
2022-12-18T10:24:31.739Z,18.27
2022-12-18T10:27:18.815Z,19.35
2022-12-18T10:29:47.027Z,16.17
2022-12-18T10:32:20.539Z,16.73
2022-12-18T10:34:49.030Z,16.00
2022-12-18T10:37:21.469Z,21.13
2022-12-18T10:40:10.942Z,12.23
2022-12-18T10:42:38.195Z,20.98
2022-12-18T10:45:15.618Z,24.10
2022-12-18T10:48:08.026Z,20.92
2022-12-18T10:51:09.790Z,16.95
2022-12-18T10:53:27.882Z,15.68
2022-12-18T10:55:58.824Z,14.18
2022-12-18T10:58:34.937Z,15.27
2022-12-18T11:01:17.584Z,17.88
2022-12-18T11:03:47.871Z,17.25
2022-12-18T11:06:17.277Z,25.70
2022-12-18T11:08:58.423Z,14.38
2022-12-18T11:11:26.013Z,23.33
2022-12-18T11:14:14.584Z,18.00
2022-12-18T11:17:03.069Z,20.50
2022-12-18T11:19:36.981Z,21.02
2022-12-18T11:22:25.368Z,30.77
2022-12-18T11:28:50.620Z,23.00
2022-12-18T11:31:24.788Z,14.57
2022-12-18T11:34:27.581Z,23.38
2022-12-18T11:36:48.677Z,17.75
2022-12-18T11:39:47.357Z,18.83
2022-12-18T11:42:23.911Z,24.40
2022-12-18T11:45:07.552Z,27.02
2022-12-18T11:48:02.468Z,39.08
2022-12-18T11:50:45.675Z,20.90
2022-12-18T11:53:13.592Z,29.38
2022-12-18T11:56:02.838Z,27.08
2022-12-18T11:58:51.495Z,17.20
2022-12-18T12:01:49.761Z,19.90
2022-12-18T12:04:46.955Z,20.65
2022-12-18T12:07:31.997Z,17.88
2022-12-18T12:10:14.258Z,15.82
2022-12-18T12:13:19.203Z,21.67
2022-12-18T12:16:04.250Z,17.52
2022-12-18T12:19:09.499Z,20.52
2022-12-18T12:21:40.198Z,25.88
2022-12-18T12:24:39.781Z,28.60
2022-12-18T12:27:43.978Z,16.83
2022-12-18T12:30:22.205Z,17.23
2022-12-18T12:33:19.015Z,31.23
2022-12-18T12:36:05.181Z,24.88
2022-12-18T12:38:51.610Z,27.48
2022-12-18T12:41:43.069Z,23.17
2022-12-18T12:44:20.050Z,19.40
2022-12-18T12:46:48.815Z,31.38
2022-12-18T12:49:54.514Z,28.60
2022-12-18T12:52:27.532Z,22.75
2022-12-18T12:54:55.125Z,26.30
2022-12-18T12:57:49.876Z,20.63
2022-12-18T13:00:25.057Z,13.95
2022-12-18T13:03:21.444Z,20.80
2022-12-18T13:05:55.762Z,19.15
2022-12-18T13:08:30.916Z,22.50
2022-12-18T13:11:19.712Z,18.80
2022-12-18T13:13:55.329Z,20.35
2022-12-18T13:16:25.327Z,16.55
2022-12-18T13:18:59.731Z,21.42
2022-12-18T13:21:35.291Z,15.18
2022-12-18T13:24:31.634Z,18.35
2022-12-18T13:26:58.588Z,19.58
2022-12-18T13:29:46.850Z,16.95
2022-12-18T13:32:22.727Z,30.77
2022-12-18T13:35:22.756Z,20.63
2022-12-18T13:37:54.693Z,15.48
2022-12-18T13:40:47.980Z,16.60
2022-12-18T13:43:20.815Z,18.02
2022-12-18T13:46:22.956Z,23.58
2022-12-18T13:48:55.448Z,21.48
2022-12-18T13:51:23.965Z,18.35
2022-12-18T13:53:54.425Z,15.73
2022-12-18T13:56:28.542Z,14.75
2022-12-18T13:59:14.346Z,15.00
2022-12-18T14:01:51.659Z,13.32
2022-12-18T14:04:35.074Z,13.02
2022-12-18T14:07:06.684Z,16.75
2022-12-18T14:09:40.449Z,20.15
2022-12-18T14:12:32.707Z,14.48
2022-12-18T14:15:01.434Z,12.57
2022-12-18T14:17:28.552Z,15.98
2022-12-18T14:19:56.535Z,25.73
2022-12-18T14:22:30.270Z,13.75
2022-12-18T14:25:30.055Z,22.25
2022-12-18T14:28:18.335Z,13.27
2022-12-18T14:30:46.955Z,13.70
2022-12-18T14:33:15.369Z,16.63
2022-12-18T14:36:03.533Z,13.27
2022-12-18T14:38:34.272Z,13.02
2022-12-18T14:41:20.663Z,13.00
2022-12-18T14:44:07.874Z,11.38
2022-12-18T14:46:42.682Z,19.27
2022-12-18T14:49:47.981Z,12.63
2022-12-18T14:52:26.950Z,16.88
2022-12-18T14:54:54.090Z,13.13
2022-12-18T14:57:25.062Z,13.68
2022-12-18T14:59:52.512Z,13.13
2022-12-18T15:02:28.939Z,14.43
2022-12-18T15:05:19.235Z,14.45
2022-12-18T15:07:50.613Z,17.20
2022-12-18T15:10:25.128Z,14.02
2022-12-18T15:13:08.038Z,13.10
2022-12-18T15:15:37.611Z,15.55
2022-12-18T15:18:13.049Z,12.48
2022-12-18T15:20:50.669Z,13.25
2022-12-18T15:23:34.459Z,13.70
2022-12-18T15:26:05.861Z,12.65
2022-12-18T15:28:40.731Z,12.38
2022-12-18T15:31:14.856Z,15.93
2022-12-18T15:33:47.088Z,13.90
2022-12-18T15:36:16.315Z,14.43
2022-12-18T15:38:48.824Z,13.52
2022-12-18T15:41:21.417Z,15.05
2022-12-18T15:43:54.208Z,12.02
2022-12-18T15:46:23.898Z,14.90
2022-12-18T15:49:01.421Z,18.60
2022-12-18T15:51:35.734Z,17.50
2022-12-18T15:54:05.963Z,15.10
2022-12-18T15:56:52.268Z,14.80
2022-12-18T15:59:21.586Z,16.13
2022-12-18T16:01:51.724Z,16.67
2022-12-18T16:04:21.735Z,15.18
2022-12-18T16:07:13.915Z,17.88
2022-12-18T16:09:36.522Z,19.70
2022-12-18T16:12:03.670Z,16.65
2022-12-18T16:14:31.790Z,57.08
2022-12-18T16:17:04.490Z,17.08
2022-12-18T16:19:31.534Z,18.27
2022-12-18T16:21:59.685Z,18.75
2022-12-18T16:24:29.908Z,17.55
2022-12-18T16:27:00.105Z,17.58
2022-12-18T16:29:29.895Z,46.75
2022-12-18T16:31:58.418Z,18.17
2022-12-18T16:34:32.890Z,17.23
2022-12-18T16:37:06.756Z,15.98
2022-12-18T16:39:35.652Z,38.72
2022-12-18T16:42:05.888Z,16.42
2022-12-18T16:44:34.618Z,31.73
2022-12-18T16:47:03.288Z,15.30
2022-12-18T16:49:30.783Z,20.85
2022-12-18T16:51:57.627Z,17.80
2022-12-18T16:54:24.955Z,17.98
2022-12-18T16:56:52.645Z,40.25
2022-12-18T16:59:21.885Z,18.15
2022-12-18T17:01:48.972Z,19.27
2022-12-18T17:04:17.667Z,19.55
2022-12-18T17:06:45.904Z,46.05
2022-12-18T17:09:17.100Z,18.25
2022-12-18T17:11:45.810Z,19.98
2022-12-18T17:14:19.019Z,43.90
2022-12-18T17:16:46.886Z,40.70
2022-12-18T17:19:17.514Z,41.00
2022-12-18T17:21:47.701Z,20.25
2022-12-18T17:24:15.286Z,40.00
2022-12-18T17:26:42.718Z,17.92
2022-12-18T17:29:14.352Z,46.22
2022-12-18T17:31:41.667Z,20.40
2022-12-18T17:34:10.643Z,37.15
2022-12-18T17:36:37.926Z,60.95
2022-12-18T17:39:06.302Z,40.20
2022-12-18T17:41:33.979Z,40.38
2022-12-18T17:44:03.350Z,42.42
2022-12-18T17:46:33.035Z,18.80
2022-12-18T17:49:01.355Z,39.95
2022-12-18T17:51:29.220Z,41.00
2022-12-18T17:53:56.049Z,42.88
2022-12-18T17:56:24.566Z,36.38
2022-12-18T17:58:52.042Z,32.95
2022-12-18T18:01:22.735Z,42.67
2022-12-18T18:03:53.623Z,19.35
2022-12-18T18:06:20.986Z,21.02
2022-12-18T18:08:48.180Z,39.20
2022-12-18T18:11:36.213Z,41.13
2022-12-18T18:14:13.776Z,38.45
2022-12-18T18:16:46.157Z,37.10
2022-12-18T18:19:17.389Z,19.88
2022-12-18T18:21:46.226Z,43.75
2022-12-18T18:24:16.169Z,19.27
2022-12-18T18:26:43.010Z,42.25
2022-12-18T18:29:15.919Z,49.33
2022-12-18T18:31:43.593Z,44.92
2022-12-18T18:34:19.015Z,42.95
2022-12-18T18:36:46.334Z,44.28
2022-12-18T18:39:14.858Z,40.10
2022-12-18T18:41:47.686Z,41.65
2022-12-18T18:44:20.653Z,38.58
2022-12-18T18:46:53.234Z,44.83
2022-12-18T18:49:24.353Z,39.63
2022-12-18T18:51:51.432Z,50.45
2022-12-18T18:54:18.293Z,42.38
2022-12-18T18:57:18.892Z,48.17
2022-12-18T18:59:32.363Z,45.05
2022-12-18T19:02:04.109Z,21.10
2022-12-18T19:04:33.039Z,18.60
2022-12-18T19:07:00.082Z,60.83
2022-12-18T19:09:27.800Z,44.65
2022-12-18T19:12:14.042Z,49.47
2022-12-18T19:14:40.859Z,45.47
2022-12-18T19:17:07.724Z,49.38
2022-12-18T19:19:34.999Z,46.03
2022-12-18T19:22:01.864Z,41.15
2022-12-18T19:24:29.227Z,39.10
2022-12-18T19:26:58.072Z,48.67
2022-12-18T19:29:27.519Z,44.30
2022-12-18T19:31:54.521Z,42.70
2022-12-18T19:34:21.435Z,38.95
2022-12-18T19:36:48.202Z,41.45
2022-12-18T19:39:17.942Z,49.90
2022-12-18T19:41:46.917Z,62.17
2022-12-18T19:44:16.036Z,46.25
2022-12-18T19:46:43.740Z,44.92
2022-12-18T19:49:17.459Z,39.97
2022-12-18T19:51:45.923Z,42.17
2022-12-18T19:54:17.012Z,46.10
2022-12-18T19:56:45.209Z,52.95
2022-12-18T19:59:15.793Z,21.80
2022-12-18T20:01:43.013Z,44.65
2022-12-18T20:04:10.171Z,46.15
2022-12-18T20:06:48.228Z,44.05
2022-12-18T20:09:19.213Z,42.33
2022-12-18T20:11:46.671Z,46.25
2022-12-18T20:14:15.468Z,46.45
2022-12-18T20:16:52.994Z,46.90
2022-12-18T20:19:21.141Z,50.45
2022-12-18T20:21:48.091Z,62.17
2022-12-18T20:24:15.142Z,49.70
2022-12-18T20:26:42.015Z,40.72
2022-12-18T20:29:09.471Z,50.15
2022-12-18T20:31:36.440Z,42.55
2022-12-18T20:34:05.020Z,51.35
2022-12-18T20:36:35.268Z,50.58
2022-12-18T20:39:08.729Z,50.03
2022-12-18T20:41:38.842Z,23.58
2022-12-18T20:44:23.426Z,47.05
2022-12-18T20:46:56.898Z,47.17
2022-12-18T20:49:27.037Z,45.47
2022-12-18T20:51:56.303Z,45.33
2022-12-18T20:54:25.042Z,46.63
2022-12-18T20:56:52.244Z,21.83
2022-12-18T20:59:44.806Z,43.05
2022-12-18T21:02:14.980Z,50.40
2022-12-18T21:04:42.339Z,40.08
2022-12-18T21:07:09.450Z,47.92
2022-12-18T21:09:38.078Z,48.08
2022-12-18T21:12:34.981Z,44.72
2022-12-18T21:15:10.287Z,50.63
2022-12-18T21:17:44.091Z,50.67
2022-12-18T21:20:13.308Z,48.58
2022-12-18T21:22:44.580Z,50.20
2022-12-18T21:25:11.414Z,47.75
2022-12-18T21:27:39.571Z,48.80
2022-12-18T21:30:07.178Z,44.92
2022-12-18T21:32:34.532Z,41.67
2022-12-18T21:35:01.347Z,53.08
2022-12-18T21:37:28.490Z,54.20
2022-12-18T21:39:55.342Z,39.00
2022-12-18T21:42:40.841Z,45.75
2022-12-18T21:45:08.054Z,41.25
2022-12-18T21:47:36.067Z,42.88
2022-12-18T21:50:02.987Z,43.63
2022-12-18T21:52:32.052Z,47.42
2022-12-18T21:55:09.022Z,43.05
2022-12-18T21:57:39.339Z,42.60
2022-12-18T22:00:10.183Z,42.80
2022-12-18T22:02:41.980Z,40.58
2022-12-18T22:05:09.321Z,40.28
2022-12-18T22:07:36.357Z,47.95
2022-12-18T22:10:03.163Z,42.55
2022-12-18T22:12:43.205Z,38.17
2022-12-18T22:15:13.145Z,44.58
2022-12-18T22:17:45.668Z,38.63
2022-12-18T22:20:12.517Z,44.55
2022-12-18T22:22:39.325Z,45.35
2022-12-18T22:25:06.406Z,47.85
2022-12-18T22:27:33.554Z,41.25
2022-12-18T22:30:06.317Z,42.05
2022-12-18T22:32:34.249Z,47.08
2022-12-18T22:35:07.268Z,41.95
2022-12-18T22:37:37.090Z,38.60
2022-12-18T22:40:06.045Z,45.45
2022-12-18T22:42:34.492Z,44.03
2022-12-18T22:45:01.268Z,44.58
2022-12-18T22:47:30.335Z,45.22
2022-12-18T22:49:57.943Z,42.60
2022-12-18T22:52:25.267Z,42.65
2022-12-18T22:54:53.845Z,51.00
2022-12-18T22:57:25.084Z,50.20
2022-12-18T22:59:52.034Z,43.35
2022-12-18T23:02:19.763Z,43.42
2022-12-18T23:04:47.567Z,44.88
2022-12-18T23:07:34.453Z,44.53
2022-12-18T23:10:01.547Z,38.88
2022-12-18T23:12:28.349Z,53.78
2022-12-18T23:14:55.280Z,49.40
2022-12-18T23:17:42.078Z,44.38
2022-12-18T23:20:09.271Z,37.30
2022-12-18T23:22:36.067Z,46.40
2022-12-18T23:25:03.067Z,42.38
2022-12-18T23:27:30.991Z,43.10
2022-12-18T23:29:57.842Z,53.33
2022-12-18T23:32:25.599Z,42.60
2022-12-18T23:34:53.507Z,46.50
2022-12-18T23:37:49.763Z,45.33
2022-12-18T23:40:07.872Z,47.08
2022-12-18T23:42:34.717Z,39.97
2022-12-18T23:45:01.539Z,39.33
2022-12-18T23:47:35.375Z,39.50
2022-12-18T23:50:02.337Z,32.95
2022-12-18T23:52:29.611Z,44.10
2022-12-18T23:54:56.387Z,43.17
2022-12-18T23:57:24.267Z,42.88
2022-12-18T23:59:53.690Z,40.28
